Time;durP1;ratioP1;P1;durP2;ratioP2;P2;SDS_P1;SDS_P2;PMS_P1;PMS_P2;Temp;Humidity;BMP_temperature;BMP_pressure;BME280_temperature;BME280_humidity;BME280_pressure;Samples;Min_cycle;Max_cycle;Signal;HPM_P1;HPM_P2
2021/08/08 00:01:00;;;;;;;4.17;3.10;;;20.70;99.90;;;;;;5110166;28;20487;-67
2021/08/08 00:03:27;;;;;;;3.90;3.60;;;20.70;99.90;;;;;;5105204;28;20476;-67
2021/08/08 00:05:54;;;;;;;3.03;2.83;;;20.70;99.90;;;;;;5108395;28;20469;-67
2021/08/08 00:08:27;;;;;;;5.00;4.57;;;20.70;99.90;;;;;;5113558;28;20468;-67
2021/08/08 00:10:54;;;;;;;3.90;3.60;;;20.70;99.90;;;;;;5100925;28;20465;-67
2021/08/08 00:13:21;;;;;;;4.33;4.03;;;20.60;99.90;;;;;;5102142;28;20465;-67
2021/08/08 00:15:48;;;;;;;3.43;3.13;;;20.60;99.90;;;;;;5109621;28;20480;-67
2021/08/08 00:18:15;;;;;;;3.03;2.83;;;20.60;99.90;;;;;;5114322;28;20464;-68
2021/08/08 00:20:42;;;;;;;4.77;4.37;;;20.60;99.90;;;;;;5105708;28;20822;-69
2021/08/08 00:23:09;;;;;;;4.37;4.07;;;20.60;99.90;;;;;;5114255;27;20456;-69
2021/08/08 00:25:37;;;;;;;3.40;3.10;;;20.60;99.90;;;;;;5113305;28;20456;-69
2021/08/08 00:28:05;;;;;;;3.10;2.90;;;20.60;99.90;;;;;;5102422;28;20480;-69
2021/08/08 00:30:32;;;;;;;3.20;3.00;;;20.50;99.90;;;;;;5106983;27;20465;-69
2021/08/08 00:32:59;;;;;;;3.30;3.10;;;20.50;99.90;;;;;;5105566;28;26683;-68
2021/08/08 00:35:26;;;;;;;3.60;3.30;;;20.50;99.90;;;;;;5104999;28;20472;-68
2021/08/08 00:37:53;;;;;;;3.37;2.83;;;20.50;99.90;;;;;;5101684;28;20469;-69
2021/08/08 00:40:21;;;;;;;3.53;3.23;;;20.50;99.90;;;;;;5106471;28;20464;-68
2021/08/08 00:42:49;;;;;;;3.20;2.90;;;20.50;99.90;;;;;;5112901;28;20794;-68
2021/08/08 00:45:17;;;;;;;3.37;3.07;;;20.40;99.90;;;;;;5094009;28;20464;-68
2021/08/08 00:47:45;;;;;;;5.43;4.93;;;20.40;99.90;;;;;;5099156;28;20803;-69
2021/08/08 00:50:13;;;;;;;3.43;3.13;;;20.40;99.90;;;;;;5109041;27;21030;-68
2021/08/08 00:52:41;;;;;;;3.63;3.33;;;20.40;99.90;;;;;;5112807;28;20465;-68
2021/08/08 00:55:10;;;;;;;4.20;3.87;;;20.40;99.90;;;;;;5112122;27;20460;-68
2021/08/08 00:57:37;;;;;;;3.73;2.97;;;20.40;99.90;;;;;;5101480;28;20473;-68
2021/08/08 01:00:08;;;;;;;3.53;3.23;;;20.30;99.90;;;;;;5110272;28;20463;-68
2021/08/08 01:02:37;;;;;;;4.33;2.83;;;20.30;99.90;;;;;;5111422;28;20483;-69
2021/08/08 01:05:08;;;;;;;3.77;3.50;;;20.30;99.90;;;;;;5103762;28;20468;-68
2021/08/08 01:07:41;;;;;;;3.70;3.47;;;20.30;99.90;;;;;;5110266;28;20472;-68
2021/08/08 01:10:10;;;;;;;2.90;2.70;;;20.30;99.90;;;;;;5101662;27;20515;-69
2021/08/08 01:12:39;;;;;;;4.27;3.87;;;20.30;99.90;;;;;;5103238;28;20488;-68
2021/08/08 01:15:08;;;;;;;3.00;2.80;;;20.30;99.90;;;;;;5107070;28;20494;-68
2021/08/08 01:17:37;;;;;;;3.90;3.40;;;20.30;99.90;;;;;;5109569;27;20461;-68
2021/08/08 01:20:07;;;;;;;3.37;3.17;;;20.30;99.90;;;;;;5107284;28;20461;-69
2021/08/08 01:22:35;;;;;;;4.57;4.27;;;20.20;99.90;;;;;;5103073;27;20467;-69
2021/08/08 01:25:07;;;;;;;3.97;3.57;;;20.20;99.90;;;;;;5112779;28;20460;-69
2021/08/08 01:27:35;;;;;;;4.47;4.17;;;20.20;99.90;;;;;;5109042;28;20471;-68
2021/08/08 01:30:03;;;;;;;3.77;3.47;;;20.20;99.90;;;;;;5105659;27;20456;-69
2021/08/08 01:32:33;;;;;;;3.47;3.17;;;20.10;99.90;;;;;;5101273;28;20461;-68
2021/08/08 01:35:00;;;;;;;6.00;4.20;;;20.10;99.90;;;;;;5106837;27;20474;-68
2021/08/08 01:37:29;;;;;;;3.77;3.47;;;20.10;99.90;;;;;;5105725;28;20461;-68
2021/08/08 01:39:59;;;;;;;4.97;4.57;;;20.10;99.90;;;;;;5112234;28;20810;-68
2021/08/08 01:42:29;;;;;;;4.33;3.90;;;20.10;99.90;;;;;;5110671;28;20476;-68
2021/08/08 01:44:56;;;;;;;4.17;3.77;;;20.00;99.90;;;;;;5112592;28;20806;-69
2021/08/08 01:47:28;;;;;;;3.80;3.50;;;20.00;99.90;;;;;;5102981;27;20461;-68
2021/08/08 01:49:56;;;;;;;3.83;3.60;;;20.00;99.90;;;;;;5105110;28;20453;-68
2021/08/08 01:52:24;;;;;;;11.30;7.50;;;19.90;99.90;;;;;;5098865;28;20452;-68
2021/08/08 01:54:54;;;;;;;39.00;32.33;;;19.90;99.90;;;;;;5111434;28;20468;-68
2021/08/08 01:57:21;;;;;;;6.20;5.70;;;19.90;99.90;;;;;;5099723;28;20464;-69
2021/08/08 01:59:49;;;;;;;4.20;3.80;;;19.90;99.90;;;;;;5111612;28;20468;-69
2021/08/08 02:02:17;;;;;;;4.33;3.93;;;19.90;99.90;;;;;;5100503;28;20965;-69
2021/08/08 02:04:46;;;;;;;4.23;3.57;;;19.90;99.90;;;;;;5115597;27;20475;-68
2021/08/08 02:07:14;;;;;;;3.57;3.37;;;19.90;99.90;;;;;;5114642;27;20473;-69
2021/08/08 02:09:42;;;;;;;5.40;3.17;;;19.90;99.90;;;;;;5112774;28;20472;-68
2021/08/08 02:12:09;;;;;;;3.03;2.83;;;19.90;99.90;;;;;;5103727;28;20464;-69
2021/08/08 02:14:37;;;;;;;4.60;4.20;;;19.80;99.90;;;;;;5112207;28;20473;-69
2021/08/08 02:17:06;;;;;;;3.70;3.50;;;19.80;99.90;;;;;;5104097;28;20525;-69
2021/08/08 02:19:33;;;;;;;7.23;3.50;;;19.80;99.90;;;;;;5102527;28;20484;-69
2021/08/08 02:22:01;;;;;;;3.63;3.33;;;19.90;99.90;;;;;;5111079;27;20461;-68
2021/08/08 02:24:29;;;;;;;4.40;3.33;;;19.80;99.90;;;;;;5116275;27;20487;-69
2021/08/08 02:26:56;;;;;;;3.93;2.93;;;19.80;99.90;;;;;;5116202;28;20525;-69
2021/08/08 02:29:23;;;;;;;5.83;3.93;;;19.80;99.90;;;;;;5116270;27;20485;-68
2021/08/08 02:31:50;;;;;;;5.70;4.03;;;19.70;99.90;;;;;;5116343;27;20505;-69
2021/08/08 02:34:18;;;;;;;5.17;4.40;;;19.70;99.90;;;;;;5115846;27;20482;-69
2021/08/08 02:36:45;;;;;;;3.40;3.20;;;19.70;99.90;;;;;;5116578;28;20973;-69
2021/08/08 02:39:12;;;;;;;4.43;3.40;;;19.70;99.90;;;;;;5108046;27;20472;-69
2021/08/08 02:41:39;;;;;;;3.50;2.97;;;19.70;99.90;;;;;;5116347;28;20467;-69
2021/08/08 02:44:06;;;;;;;3.77;3.47;;;19.70;99.90;;;;;;5104735;28;20460;-69
2021/08/08 02:46:33;;;;;;;3.30;3.00;;;19.70;99.90;;;;;;5116124;27;20464;-69
2021/08/08 02:49:00;;;;;;;6.13;3.30;;;19.70;99.90;;;;;;5109549;28;20792;-68
2021/08/08 02:51:29;;;;;;;3.37;3.17;;;19.70;99.90;;;;;;5108796;28;20475;-69
2021/08/08 02:53:56;;;;;;;3.83;3.53;;;19.70;99.90;;;;;;5101820;28;20476;-69
2021/08/08 02:56:23;;;;;;;4.10;3.50;;;19.70;99.90;;;;;;5102647;28;20461;-68
2021/08/08 02:58:49;;;;;;;3.07;2.87;;;19.70;99.90;;;;;;5109184;27;20480;-68
2021/08/08 03:01:16;;;;;;;2.97;2.73;;;19.60;99.90;;;;;;5108454;28;20456;-68
2021/08/08 03:03:43;;;;;;;3.60;3.30;;;19.60;99.90;;;;;;5102280;28;20468;-68
2021/08/08 03:06:12;;;;;;;4.30;3.07;;;19.70;99.90;;;;;;5101736;27;20465;-69
2021/08/08 03:08:44;;;;;;;3.70;3.40;;;19.60;99.90;;;;;;5108556;28;21145;-69
2021/08/08 03:11:11;;;;;;;3.67;3.37;;;19.70;99.90;;;;;;5112647;27;20464;-68
2021/08/08 03:13:39;;;;;;;3.40;3.10;;;19.60;99.90;;;;;;5115221;28;20471;-69
2021/08/08 03:16:06;;;;;;;3.30;3.00;;;19.60;99.90;;;;;;5101535;27;20462;-69
2021/08/08 03:18:34;;;;;;;3.03;2.80;;;19.60;99.90;;;;;;5107250;28;20485;-69
2021/08/08 03:21:01;;;;;;;4.07;3.70;;;19.60;99.90;;;;;;5108625;28;20475;-69
2021/08/08 03:23:28;;;;;;;3.47;3.20;;;19.60;99.90;;;;;;5112881;27;20456;-69
2021/08/08 03:25:56;;;;;;;3.50;3.20;;;19.60;99.90;;;;;;5121070;27;20460;-69
2021/08/08 03:28:23;;;;;;;3.80;3.50;;;19.60;99.90;;;;;;5106042;28;20466;-68
2021/08/08 03:30:50;;;;;;;4.17;3.77;;;19.60;99.90;;;;;;5108546;28;20479;-69
2021/08/08 03:33:17;;;;;;;5.50;3.23;;;19.70;99.90;;;;;;5104229;27;20461;-69
2021/08/08 03:35:44;;;;;;;3.17;2.80;;;19.60;99.90;;;;;;5115097;27;20468;-68
2021/08/08 03:38:11;;;;;;;3.50;3.20;;;19.60;99.90;;;;;;5108772;27;20477;-68
2021/08/08 03:40:38;;;;;;;3.50;2.73;;;19.60;99.90;;;;;;5115325;28;20806;-69
2021/08/08 03:43:06;;;;;;;4.90;2.83;;;19.70;99.90;;;;;;5106508;27;20811;-68
2021/08/08 03:45:33;;;;;;;3.37;3.07;;;19.70;99.90;;;;;;5109896;27;20456;-68
2021/08/08 03:48:00;;;;;;;4.23;3.43;;;19.70;99.90;;;;;;5114696;27;20484;-69
2021/08/08 03:50:27;;;;;;;3.20;2.90;;;19.70;99.90;;;;;;5101037;28;20462;-68
2021/08/08 03:52:54;;;;;;;3.10;2.90;;;19.70;99.90;;;;;;5105813;28;20955;-69
2021/08/08 03:55:22;;;;;;;3.10;2.90;;;19.70;99.90;;;;;;5107844;28;20460;-68
2021/08/08 03:57:49;;;;;;;3.00;2.80;;;19.70;99.90;;;;;;5104184;28;20951;-68
2021/08/08 04:00:17;;;;;;;3.37;3.10;;;19.70;99.90;;;;;;5100571;28;20472;-68
2021/08/08 04:02:44;;;;;;;2.93;2.67;;;19.70;99.90;;;;;;5104505;27;20461;-69
2021/08/08 04:05:12;;;;;;;2.60;2.37;;;19.70;99.90;;;;;;5107528;28;20800;-68
2021/08/08 04:07:39;;;;;;;4.67;3.80;;;19.70;99.90;;;;;;5104916;28;20472;-67
2021/08/08 04:10:07;;;;;;;3.10;2.90;;;19.70;99.90;;;;;;5100538;28;20965;-67
2021/08/08 04:12:34;;;;;;;2.57;2.37;;;19.70;99.90;;;;;;5111443;28;20464;-68
2021/08/08 04:15:03;;;;;;;3.37;3.07;;;19.70;99.90;;;;;;5109875;28;20480;-69
2021/08/08 04:17:32;;;;;;;3.30;3.00;;;19.70;99.90;;;;;;5105747;28;20524;-68
2021/08/08 04:19:59;;;;;;;5.70;3.30;;;19.70;99.90;;;;;;5100267;28;20483;-69
2021/08/08 04:22:26;;;;;;;3.57;2.87;;;19.70;99.90;;;;;;5111188;27;20460;-68
2021/08/08 04:24:53;;;;;;;3.20;2.80;;;19.70;99.90;;;;;;5113595;28;20469;-67
2021/08/08 04:27:20;;;;;;;2.50;2.30;;;19.70;99.90;;;;;;5122089;27;20460;-68
2021/08/08 04:29:47;;;;;;;4.60;2.70;;;19.70;99.90;;;;;;5100439;28;20491;-67
2021/08/08 04:32:15;;;;;;;3.10;2.80;;;19.70;99.90;;;;;;5101510;28;20465;-67
2021/08/08 04:34:43;;;;;;;3.27;2.80;;;19.70;99.90;;;;;;5114045;27;20464;-68
2021/08/08 04:37:10;;;;;;;2.77;2.57;;;19.70;99.90;;;;;;5113577;27;20476;-68
2021/08/08 04:39:37;;;;;;;2.67;2.47;;;19.70;99.90;;;;;;5107905;27;20835;-68
2021/08/08 04:42:04;;;;;;;4.07;2.50;;;19.70;99.90;;;;;;5113784;27;20464;-68
2021/08/08 04:44:31;;;;;;;2.60;2.33;;;19.70;99.90;;;;;;5100303;27;20468;-68
2021/08/08 04:46:58;;;;;;;3.10;2.33;;;19.70;99.90;;;;;;5113809;27;20542;-68
2021/08/08 04:49:25;;;;;;;2.70;2.00;;;19.80;99.90;;;;;;5099547;28;20460;-68
2021/08/08 04:51:53;;;;;;;3.63;2.67;;;19.80;99.90;;;;;;5113981;28;20465;-68
2021/08/08 04:54:20;;;;;;;2.80;2.60;;;19.80;99.90;;;;;;5100003;27;20539;-68
2021/08/08 04:56:47;;;;;;;2.60;2.40;;;19.90;99.90;;;;;;5113348;28;20464;-68
2021/08/08 04:59:14;;;;;;;2.90;2.30;;;19.90;99.90;;;;;;5099962;28;20477;-68
2021/08/08 05:01:41;;;;;;;2.57;2.17;;;19.80;99.90;;;;;;5099901;28;20473;-68
2021/08/08 05:04:08;;;;;;;2.47;2.30;;;19.80;99.90;;;;;;5106000;28;20477;-69
2021/08/08 05:06:35;;;;;;;2.40;2.20;;;19.80;99.90;;;;;;5107062;28;20460;-69
2021/08/08 05:09:04;;;;;;;2.40;2.20;;;19.80;99.90;;;;;;5100403;28;20472;-68
2021/08/08 05:11:32;;;;;;;4.73;2.27;;;19.80;99.90;;;;;;5099563;28;20461;-69
2021/08/08 05:13:59;;;;;;;2.40;2.20;;;19.80;99.90;;;;;;5113633;28;20471;-68
2021/08/08 05:16:26;;;;;;;2.60;1.97;;;19.80;99.90;;;;;;5099129;28;20461;-70
2021/08/08 05:18:53;;;;;;;2.67;2.27;;;19.80;99.90;;;;;;5105281;28;20472;-69
2021/08/08 05:21:20;;;;;;;2.30;2.10;;;19.80;99.90;;;;;;5106344;28;20475;-68
2021/08/08 05:23:47;;;;;;;2.13;1.93;;;19.80;99.90;;;;;;5113331;27;20469;-68
2021/08/08 05:26:15;;;;;;;2.43;2.00;;;19.80;99.90;;;;;;5121938;27;20463;-68
2021/08/08 05:28:43;;;;;;;3.20;2.13;;;19.80;99.90;;;;;;5103837;28;20470;-68
2021/08/08 05:31:11;;;;;;;3.07;2.00;;;19.80;99.90;;;;;;5106114;28;20551;-68
2021/08/08 05:33:38;;;;;;;2.97;2.33;;;19.80;99.90;;;;;;5105088;27;20471;-69
2021/08/08 05:36:06;;;;;;;2.73;1.90;;;19.80;99.90;;;;;;5112630;28;20806;-68
2021/08/08 05:38:33;;;;;;;3.50;2.63;;;19.80;99.90;;;;;;5106839;27;20517;-68
2021/08/08 05:41:00;;;;;;;3.10;2.10;;;19.90;99.90;;;;;;5113061;28;20464;-68
2021/08/08 05:43:28;;;;;;;1.73;1.63;;;19.90;99.90;;;;;;5100817;28;20454;-68
2021/08/08 05:45:55;;;;;;;4.50;1.77;;;19.90;99.90;;;;;;5102908;28;20475;-68
2021/08/08 05:48:22;;;;;;;3.80;2.10;;;20.00;99.90;;;;;;5112570;28;20472;-68
2021/08/08 05:50:49;;;;;;;2.00;1.77;;;20.00;99.90;;;;;;5099284;28;20464;-68
2021/08/08 05:53:16;;;;;;;4.73;1.70;;;20.00;99.90;;;;;;5100371;28;20811;-68
2021/08/08 05:55:46;;;;;;;2.37;2.20;;;20.00;99.90;;;;;;5106412;28;20462;-68
2021/08/08 05:58:13;;;;;;;2.00;1.50;;;20.00;99.90;;;;;;5104690;28;20484;-69
2021/08/08 06:00:42;;;;;;;1.60;1.50;;;20.10;99.90;;;;;;5099215;28;20461;-69
2021/08/08 06:03:10;;;;;;;1.90;1.70;;;20.10;99.90;;;;;;5099213;28;20480;-68
2021/08/08 06:05:38;;;;;;;1.73;1.63;;;20.20;99.90;;;;;;5099291;28;20829;-68
2021/08/08 06:08:06;;;;;;;1.60;1.50;;;20.30;99.90;;;;;;5112340;28;20476;-68
2021/08/08 06:10:33;;;;;;;2.63;1.60;;;20.20;99.90;;;;;;5099894;28;20456;-69
2021/08/08 06:13:00;;;;;;;2.07;1.87;;;20.30;99.90;;;;;;5112723;27;20468;-68
2021/08/08 06:15:27;;;;;;;2.23;2.03;;;20.30;99.90;;;;;;5112340;28;21057;-68
2021/08/08 06:17:56;;;;;;;3.17;1.83;;;20.40;99.90;;;;;;5099042;28;20483;-68
2021/08/08 06:20:23;;;;;;;4.17;1.87;;;20.50;99.90;;;;;;5099542;28;20484;-66
2021/08/08 06:22:50;;;;;;;1.70;1.60;;;20.50;99.90;;;;;;5112333;28;20468;-68
2021/08/08 06:25:17;;;;;;;1.47;1.37;;;20.50;99.90;;;;;;5115398;27;20468;-66
2021/08/08 06:27:44;;;;;;;1.70;1.53;;;20.50;99.90;;;;;;5099414;28;20467;-68
2021/08/08 06:30:12;;;;;;;1.70;1.60;;;20.50;99.90;;;;;;5111703;28;20475;-68
2021/08/08 06:32:39;;;;;;;4.27;1.77;;;20.50;99.90;;;;;;5099812;28;20465;-69
2021/08/08 06:35:09;;;;;;;1.90;1.80;;;20.60;99.90;;;;;;5112580;27;20806;-68
2021/08/08 06:37:36;;;;;;;2.23;1.60;;;20.60;99.90;;;;;;5104041;28;21198;-67
2021/08/08 06:40:03;;;;;;;1.60;1.50;;;20.70;99.90;;;;;;5110241;27;20814;-68
2021/08/08 06:42:30;;;;;;;1.73;1.60;;;20.80;99.90;;;;;;5103579;28;20479;-68
2021/08/08 06:44:57;;;;;;;2.17;1.70;;;20.80;99.90;;;;;;5107195;28;20464;-67
2021/08/08 06:47:24;;;;;;;3.50;1.67;;;20.90;99.90;;;;;;5111885;28;20460;-67
2021/08/08 06:49:51;;;;;;;1.50;1.40;;;21.00;99.90;;;;;;5101221;28;20465;-68
2021/08/08 06:52:19;;;;;;;1.57;1.30;;;21.00;99.90;;;;;;5106811;27;20474;-68
2021/08/08 06:54:46;;;;;;;2.90;2.70;;;21.10;99.90;;;;;;5109322;27;20487;-67
2021/08/08 06:57:22;;;;;;;3.47;3.20;;;21.10;99.90;;;;;;5104599;28;20464;-68
2021/08/08 06:59:49;;;;;;;3.00;2.80;;;21.20;99.90;;;;;;5102158;28;20475;-68
2021/08/08 07:02:16;;;;;;;1.70;1.60;;;21.40;99.90;;;;;;5104924;28;20465;-68
2021/08/08 07:04:43;;;;;;;4.60;2.30;;;21.50;99.90;;;;;;5109197;28;20461;-68
2021/08/08 07:07:10;;;;;;;2.03;1.30;;;21.60;99.90;;;;;;5106607;28;20806;-68
2021/08/08 07:09:38;;;;;;;1.60;1.50;;;21.70;99.90;;;;;;5101410;27;20464;-67
2021/08/08 07:12:06;;;;;;;1.40;1.30;;;21.70;99.90;;;;;;5105593;28;20476;-68
2021/08/08 07:14:34;;;;;;;1.50;1.40;;;21.80;99.90;;;;;;5113492;27;20479;-68
2021/08/08 07:17:01;;;;;;;1.43;1.33;;;21.90;99.90;;;;;;5103495;28;20461;-68
2021/08/08 07:19:28;;;;;;;1.60;1.30;;;21.90;99.90;;;;;;5108411;28;20480;-68
2021/08/08 07:21:56;;;;;;;1.30;1.20;;;22.00;99.90;;;;;;5107870;28;20471;-69
2021/08/08 07:24:23;;;;;;;1.40;1.30;;;22.20;99.90;;;;;;5115032;27;20453;-68
2021/08/08 07:26:51;;;;;;;1.97;1.47;;;22.40;99.90;;;;;;5118759;27;20464;-68
2021/08/08 07:29:18;;;;;;;1.57;1.30;;;22.60;99.90;;;;;;5101304;28;20468;-68
2021/08/08 07:31:45;;;;;;;1.20;1.03;;;22.70;99.90;;;;;;5102302;28;20473;-68
2021/08/08 07:34:12;;;;;;;1.57;1.47;;;22.80;99.90;;;;;;5115154;27;20468;-67
2021/08/08 07:36:39;;;;;;;1.50;1.40;;;22.90;99.90;;;;;;5115216;28;20527;-67
2021/08/08 07:39:06;;;;;;;3.00;1.60;;;22.90;99.90;;;;;;5105040;27;20779;-68
2021/08/08 07:41:33;;;;;;;2.20;1.57;;;23.00;99.90;;;;;;5114814;28;20471;-68
2021/08/08 07:44:02;;;;;;;1.50;1.40;;;23.20;99.90;;;;;;5101387;28;20795;-69
2021/08/08 07:46:28;;;;;;;2.23;2.03;;;23.20;99.90;;;;;;5114487;28;20630;-69
2021/08/08 07:48:56;;;;;;;1.77;1.67;;;23.30;99.70;;;;;;5101392;28;20460;-69
2021/08/08 07:51:23;;;;;;;1.63;1.53;;;23.40;99.30;;;;;;5114843;27;20472;-69
2021/08/08 07:53:50;;;;;;;2.53;2.00;;;23.40;99.30;;;;;;5110105;28;20780;-68
2021/08/08 07:56:17;;;;;;;3.00;2.10;;;23.50;99.40;;;;;;5105954;28;20464;-68
2021/08/08 07:58:44;;;;;;;1.60;1.50;;;23.50;99.20;;;;;;5100803;28;20783;-67
2021/08/08 08:01:12;;;;;;;2.10;1.47;;;23.50;98.20;;;;;;5102003;28;20979;-68
2021/08/08 08:03:39;;;;;;;1.87;1.13;;;23.50;98.00;;;;;;5107750;28;20473;-68
2021/08/08 08:06:06;;;;;;;1.67;0.90;;;23.60;98.10;;;;;;5106537;28;20464;-68
2021/08/08 08:08:33;;;;;;;1.13;1.03;;;23.60;97.90;;;;;;5100351;28;20484;-68
2021/08/08 08:11:03;;;;;;;1.57;1.47;;;23.70;97.60;;;;;;5102129;28;20573;-67
2021/08/08 08:13:30;;;;;;;3.43;1.40;;;23.70;97.30;;;;;;5113816;28;20475;-67
2021/08/08 08:15:57;;;;;;;4.53;1.30;;;23.70;97.10;;;;;;5101178;28;20457;-66
2021/08/08 08:18:26;;;;;;;1.47;1.17;;;23.80;96.90;;;;;;5106948;27;20487;-68
2021/08/08 08:20:52;;;;;;;1.40;1.30;;;23.80;96.80;;;;;;5107540;28;20465;-68
2021/08/08 08:23:21;;;;;;;2.40;1.97;;;23.80;96.70;;;;;;5110031;27;20495;-67
2021/08/08 08:25:48;;;;;;;3.33;3.03;;;23.90;96.70;;;;;;5114734;27;20469;-68
2021/08/08 08:28:15;;;;;;;5.13;4.73;;;24.00;96.10;;;;;;5107092;28;20477;-68
2021/08/08 08:30:42;;;;;;;9.57;8.67;;;24.00;96.20;;;;;;5107063;28;20448;-67
2021/08/08 08:33:09;;;;;;;10.70;9.70;;;24.10;96.30;;;;;;5102201;28;20456;-67
2021/08/08 08:35:38;;;;;;;4.80;4.40;;;24.10;96.50;;;;;;5112466;27;20469;-67
2021/08/08 08:38:06;;;;;;;6.53;5.90;;;24.20;96.00;;;;;;5101906;28;20474;-68
2021/08/08 08:40:37;;;;;;;6.33;5.70;;;24.30;95.80;;;;;;5113518;27;20468;-67
2021/08/08 08:43:08;;;;;;;7.27;6.57;;;24.50;95.70;;;;;;5104286;28;20469;-69
2021/08/08 08:45:37;;;;;;;5.53;5.03;;;24.60;95.30;;;;;;5102284;27;20548;-67
2021/08/08 08:48:05;;;;;;;4.70;3.90;;;24.70;94.90;;;;;;5113973;27;20472;-68
2021/08/08 08:50:34;;;;;;;6.27;4.07;;;24.70;94.20;;;;;;5113225;27;20555;-67
2021/08/08 08:53:03;;;;;;;1.77;1.50;;;24.80;94.40;;;;;;5113821;28;21168;-69
2021/08/08 08:55:30;;;;;;;2.37;2.03;;;24.70;93.60;;;;;;5099632;27;20472;-67
2021/08/08 08:57:57;;;;;;;2.97;2.73;;;24.60;93.80;;;;;;5101769;28;20487;-67
2021/08/08 09:00:24;;;;;;;7.90;6.10;;;24.70;94.10;;;;;;5106477;28;20460;-67
2021/08/08 09:02:51;;;;;;;6.00;4.77;;;24.70;94.00;;;;;;5105579;28;20460;-67
2021/08/08 09:05:21;;;;;;;10.43;9.33;;;24.70;93.90;;;;;;5099975;28;20479;-66
2021/08/08 09:07:48;;;;;;;2.53;2.33;;;24.60;94.20;;;;;;5100473;28;20454;-68
2021/08/08 09:10:16;;;;;;;11.73;10.63;;;24.70;93.80;;;;;;5106798;28;20472;-69
2021/08/08 09:12:55;;;;;;;3.07;2.77;;;24.70;93.80;;;;;;5105442;28;20459;-67
2021/08/08 09:15:32;;;;;;;4.90;4.40;;;24.70;94.10;;;;;;5100043;28;20472;-68
2021/08/08 09:18:11;;;;;;;2.60;2.40;;;24.70;94.50;;;;;;5110304;28;20518;-67
2021/08/08 09:20:39;;;;;;;2.60;2.40;;;24.70;94.30;;;;;;5104382;28;20525;-67
2021/08/08 09:23:06;;;;;;;2.57;2.30;;;24.80;94.00;;;;;;5108732;27;20951;-68
2021/08/08 09:25:35;;;;;;;1.80;1.40;;;24.80;94.00;;;;;;5118154;27;20459;-67
2021/08/08 09:28:10;;;;;;;4.83;3.30;;;24.80;94.00;;;;;;5113765;27;20588;-67
2021/08/08 09:30:38;;;;;;;4.40;4.00;;;24.90;94.00;;;;;;5099659;28;20937;-68
2021/08/08 09:33:06;;;;;;;8.20;7.10;;;24.90;94.10;;;;;;5112895;27;20460;-68
2021/08/08 09:35:35;;;;;;;3.93;3.63;;;25.00;93.60;;;;;;5112656;28;20502;-68
2021/08/08 09:38:07;;;;;;;2.07;1.97;;;25.00;93.30;;;;;;5099228;28;20466;-66
2021/08/08 09:40:38;;;;;;;2.80;1.60;;;25.00;93.60;;;;;;5112921;27;20471;-67
2021/08/08 09:43:06;;;;;;;4.03;3.67;;;25.00;93.40;;;;;;5110024;28;20872;-68
2021/08/08 09:45:39;;;;;;;3.20;2.90;;;25.00;93.50;;;;;;5103077;28;20476;-68
2021/08/08 09:48:08;;;;;;;4.70;3.40;;;24.90;92.70;;;;;;5108901;28;20470;-68
2021/08/08 09:50:35;;;;;;;4.00;3.60;;;24.90;92.60;;;;;;5103149;28;20580;-66
2021/08/08 09:53:04;;;;;;;4.77;2.87;;;24.80;92.90;;;;;;5099391;28;20483;-67
2021/08/08 09:55:33;;;;;;;4.40;3.30;;;24.80;93.10;;;;;;5100922;28;20462;-67
2021/08/08 09:58:02;;;;;;;2.10;1.57;;;24.80;93.20;;;;;;5106048;28;20564;-67
2021/08/08 10:00:33;;;;;;;3.23;1.67;;;24.80;92.70;;;;;;5104842;28;20465;-67
2021/08/08 10:03:01;;;;;;;5.30;2.63;;;24.70;91.80;;;;;;5099401;28;20475;-67
2021/08/08 10:05:29;;;;;;;2.20;2.03;;;24.70;92.40;;;;;;5098416;28;20462;-67
2021/08/08 10:07:57;;;;;;;2.37;2.17;;;24.70;92.10;;;;;;5105754;28;20469;-68
2021/08/08 10:10:25;;;;;;;3.10;2.90;;;24.70;92.10;;;;;;5105794;28;20478;-68
2021/08/08 10:13:14;;;;;;;2.60;2.40;;;24.70;92.40;;;;;;5099811;28;20479;-67
2021/08/08 10:15:44;;;;;;;1.90;1.80;;;24.80;92.70;;;;;;5108365;28;20465;-68
2021/08/08 10:18:14;;;;;;;3.50;3.20;;;24.80;92.40;;;;;;5103708;28;20525;-68
2021/08/08 10:20:41;;;;;;;3.07;2.87;;;24.80;93.20;;;;;;5098545;28;20456;-67
2021/08/08 10:23:12;;;;;;;3.47;3.17;;;24.70;93.20;;;;;;5113092;28;20468;-69
2021/08/08 10:25:42;;;;;;;1.93;1.77;;;24.70;93.20;;;;;;5116531;27;20456;-67
2021/08/08 10:28:11;;;;;;;2.17;1.90;;;24.70;92.70;;;;;;5116492;27;20946;-68
2021/08/08 10:30:40;;;;;;;2.93;2.70;;;24.60;92.40;;;;;;5116336;27;20463;-68
2021/08/08 10:33:08;;;;;;;4.87;4.47;;;24.70;92.90;;;;;;5109628;27;20479;-68
2021/08/08 10:35:39;;;;;;;12.00;10.90;;;24.70;93.00;;;;;;5116408;28;20802;-68
2021/08/08 10:38:07;;;;;;;27.93;25.33;;;24.70;92.60;;;;;;5102697;28;20465;-68
2021/08/08 10:40:36;;;;;;;38.67;34.77;;;24.70;92.40;;;;;;5116028;27;20488;-68
2021/08/08 10:43:07;;;;;;;46.40;41.87;;;24.60;92.60;;;;;;5113427;28;20483;-68
2021/08/08 10:45:37;;;;;;;33.70;30.47;;;24.50;92.50;;;;;;5106322;27;20479;-68
2021/08/08 10:48:06;;;;;;;22.30;20.30;;;24.50;92.30;;;;;;5112010;28;20804;-68
2021/08/08 10:50:41;;;;;;;49.17;44.53;;;24.50;91.50;;;;;;5106671;28;20491;-68
2021/08/08 10:53:21;;;;;;;48.43;44.03;;;24.50;91.90;;;;;;5102321;28;20474;-67
2021/08/08 10:55:51;;;;;;;46.60;42.30;;;24.50;92.20;;;;;;5101883;28;20551;-67
2021/08/08 10:58:21;;;;;;;29.10;26.40;;;24.50;92.10;;;;;;5108269;28;20457;-68
2021/08/08 11:00:49;;;;;;;30.07;27.30;;;24.50;91.90;;;;;;5108899;28;20787;-68
2021/08/08 11:03:18;;;;;;;20.30;18.30;;;24.50;91.90;;;;;;5104148;28;20822;-67
2021/08/08 11:05:46;;;;;;;14.73;13.37;;;24.50;91.90;;;;;;5115380;27;20598;-68
2021/08/08 11:08:14;;;;;;;21.50;19.40;;;24.50;91.80;;;;;;5106701;28;20469;-68
2021/08/08 11:10:43;;;;;;;25.73;23.40;;;24.50;91.50;;;;;;5108830;28;20461;-68
2021/08/08 11:13:27;;;;;;;29.73;27.10;;;24.50;91.40;;;;;;5105003;28;20799;-68
2021/08/08 11:15:55;;;;;;;17.73;16.07;;;24.50;91.40;;;;;;5109976;28;20445;-68
2021/08/08 11:18:31;;;;;;;40.27;36.67;;;24.40;90.40;;;;;;5107743;28;20473;-68
2021/08/08 11:20:58;;;;;;;42.13;38.53;;;24.40;91.40;;;;;;5102075;28;21283;-69
2021/08/08 11:23:33;;;;;;;38.90;35.27;;;24.30;91.50;;;;;;5115474;27;20464;-68
2021/08/08 11:26:00;;;;;;;14.30;12.97;;;24.30;90.90;;;;;;5115350;27;20459;-68
2021/08/08 11:28:27;;;;;;;16.10;14.60;;;24.30;90.50;;;;;;5115185;27;20981;-68
2021/08/08 11:30:56;;;;;;;11.23;10.23;;;24.40;90.70;;;;;;5115105;27;20456;-69
2021/08/08 11:33:26;;;;;;;5.97;5.47;;;24.50;90.70;;;;;;5112301;27;20468;-69
2021/08/08 11:35:59;;;;;;;39.07;35.40;;;24.50;90.60;;;;;;5101080;28;20517;-68
2021/08/08 11:38:30;;;;;;;9.40;8.40;;;24.50;91.00;;;;;;5115142;28;20849;-68
2021/08/08 11:40:57;;;;;;;10.87;9.97;;;24.60;90.90;;;;;;5114813;27;20983;-68
2021/08/08 11:43:31;;;;;;;8.57;7.67;;;24.70;90.50;;;;;;5101133;28;20474;-68
2021/08/08 11:46:01;;;;;;;23.83;21.53;;;24.70;90.00;;;;;;5110468;28;20460;-68
2021/08/08 11:48:30;;;;;;;32.23;29.00;;;24.80;90.30;;;;;;5110835;28;20478;-67
2021/08/08 11:50:59;;;;;;;39.57;35.47;;;24.80;90.40;;;;;;5105530;28;20469;-68
2021/08/08 11:53:39;;;;;;;44.07;39.77;;;24.90;90.50;;;;;;5101192;27;20802;-68
2021/08/08 11:56:17;;;;;;;30.77;27.83;;;24.90;90.60;;;;;;5101447;28;20468;-67
2021/08/08 11:58:45;;;;;;;29.03;26.23;;;25.00;90.40;;;;;;5102039;28;20494;-67
2021/08/08 12:01:15;;;;;;;24.10;21.80;;;25.00;90.00;;;;;;5113401;28;21019;-68
2021/08/08 12:03:43;;;;;;;5.30;4.80;;;25.00;90.10;;;;;;5103002;27;20873;-66
2021/08/08 12:06:10;;;;;;;10.37;9.47;;;24.90;87.50;;;;;;5101203;27;20465;-67
2021/08/08 12:08:37;;;;;;;7.13;6.43;;;24.90;89.20;;;;;;5105626;27;20466;-68
2021/08/08 12:11:04;;;;;;;4.40;4.00;;;24.90;89.00;;;;;;5107613;28;20933;-68
2021/08/08 12:13:31;;;;;;;3.70;3.37;;;25.00;87.30;;;;;;5103637;28;20465;-68
2021/08/08 12:15:58;;;;;;;3.63;3.10;;;25.00;87.20;;;;;;5111641;28;20467;-68
2021/08/08 12:18:30;;;;;;;3.10;2.90;;;25.00;87.40;;;;;;5103402;28;20487;-69
2021/08/08 12:20:57;;;;;;;3.00;2.47;;;25.00;87.50;;;;;;5100706;28;20472;-68
2021/08/08 12:23:25;;;;;;;2.30;2.20;;;25.00;86.80;;;;;;5114339;27;20480;-69
2021/08/08 12:26:00;;;;;;;1.57;1.47;;;25.00;87.40;;;;;;5117651;27;20468;-68
2021/08/08 12:28:27;;;;;;;1.97;1.87;;;25.00;86.70;;;;;;5106803;27;20467;-68
2021/08/08 12:31:05;;;;;;;1.70;1.60;;;25.00;85.80;;;;;;5113673;28;20473;-67
2021/08/08 12:33:33;;;;;;;3.73;1.40;;;25.00;86.90;;;;;;5110789;27;20476;-67
2021/08/08 12:36:10;;;;;;;1.50;1.40;;;25.00;86.80;;;;;;5113788;28;20926;-67
2021/08/08 12:38:47;;;;;;;3.00;1.50;;;24.90;86.70;;;;;;5103815;28;20549;-67
2021/08/08 12:41:25;;;;;;;1.83;1.60;;;24.90;83.80;;;;;;5113872;27;21050;-67
2021/08/08 12:43:56;;;;;;;2.00;1.80;;;24.90;82.70;;;;;;5099862;28;20464;-68
2021/08/08 12:46:30;;;;;;;1.40;1.30;;;24.80;83.50;;;;;;5113276;28;20942;-67
2021/08/08 12:49:01;;;;;;;2.97;2.10;;;24.80;85.40;;;;;;5100481;28;20472;-68
2021/08/08 12:51:28;;;;;;;5.93;4.40;;;24.80;84.10;;;;;;5112218;27;20472;-68